sensor_id;sensor_type;location;lat;lon;timestamp;P1;durP1;ratioP1;P2;durP2;ratioP2
62844;SDS011;48929;47.910;20.390;2022-08-19T00:02:22;8.48;;;6.20;;
62844;SDS011;48929;47.910;20.390;2022-08-19T00:04:50;8.88;;;6.05;;
62844;SDS011;48929;47.910;20.390;2022-08-19T00:07:21;8.90;;;6.18;;
62844;SDS011;48929;47.910;20.390;2022-08-19T00:09:49;7.28;;;6.00;;
62844;SDS011;48929;47.910;20.390;2022-08-19T00:12:18;7.47;;;5.95;;
62844;SDS011;48929;47.910;20.390;2022-08-19T00:14:46;8.32;;;6.25;;
62844;SDS011;48929;47.910;20.390;2022-08-19T00:17:14;7.70;;;5.70;;
62844;SDS011;48929;47.910;20.390;2022-08-19T00:19:42;7.53;;;5.72;;
62844;SDS011;48929;47.910;20.390;2022-08-19T00:22:10;6.35;;;5.55;;
62844;SDS011;48929;47.910;20.390;2022-08-19T00:24:40;9.23;;;5.78;;
62844;SDS011;48929;47.910;20.390;2022-08-19T00:27:16;7.97;;;5.38;;
62844;SDS011;48929;47.910;20.390;2022-08-19T00:29:52;9.35;;;5.90;;
62844;SDS011;48929;47.910;20.390;2022-08-19T00:32:20;7.90;;;5.22;;
62844;SDS011;48929;47.910;20.390;2022-08-19T00:34:49;8.98;;;5.47;;
62844;SDS011;48929;47.910;20.390;2022-08-19T00:37:20;7.00;;;5.43;;
62844;SDS011;48929;47.910;20.390;2022-08-19T00:39:51;8.65;;;5.70;;
62844;SDS011;48929;47.910;20.390;2022-08-19T00:42:20;6.40;;;5.25;;
62844;SDS011;48929;47.910;20.390;2022-08-19T00:44:49;8.52;;;6.00;;
62844;SDS011;48929;47.910;20.390;2022-08-19T00:47:17;9.23;;;6.03;;
62844;SDS011;48929;47.910;20.390;2022-08-19T00:49:47;7.43;;;5.78;;
62844;SDS011;48929;47.910;20.390;2022-08-19T00:52:18;6.43;;;5.32;;
62844;SDS011;48929;47.910;20.390;2022-08-19T00:54:47;8.38;;;5.80;;
62844;SDS011;48929;47.910;20.390;2022-08-19T00:57:28;7.53;;;5.53;;
62844;SDS011;48929;47.910;20.390;2022-08-19T00:59:57;7.43;;;5.53;;
62844;SDS011;48929;47.910;20.390;2022-08-19T01:02:29;8.32;;;5.88;;
62844;SDS011;48929;47.910;20.390;2022-08-19T01:04:57;8.23;;;5.93;;
62844;SDS011;48929;47.910;20.390;2022-08-19T01:07:26;7.70;;;5.95;;
62844;SDS011;48929;47.910;20.390;2022-08-19T01:10:04;7.10;;;5.75;;
62844;SDS011;48929;47.910;20.390;2022-08-19T01:12:34;8.82;;;5.65;;
62844;SDS011;48929;47.910;20.390;2022-08-19T01:15:04;8.35;;;6.18;;
62844;SDS011;48929;47.910;20.390;2022-08-19T01:17:33;7.78;;;5.93;;
62844;SDS011;48929;47.910;20.390;2022-08-19T01:20:09;7.47;;;5.85;;
62844;SDS011;48929;47.910;20.390;2022-08-19T01:22:39;7.90;;;5.95;;
62844;SDS011;48929;47.910;20.390;2022-08-19T01:25:09;8.15;;;5.82;;
62844;SDS011;48929;47.910;20.390;2022-08-19T01:27:41;9.10;;;6.25;;
62844;SDS011;48929;47.910;20.390;2022-08-19T01:30:12;7.47;;;5.72;;
62844;SDS011;48929;47.910;20.390;2022-08-19T01:32:40;8.02;;;6.13;;
62844;SDS011;48929;47.910;20.390;2022-08-19T01:35:10;8.93;;;5.70;;
62844;SDS011;48929;47.910;20.390;2022-08-19T01:37:45;8.68;;;5.90;;
62844;SDS011;48929;47.910;20.390;2022-08-19T01:40:14;9.48;;;6.20;;
62844;SDS011;48929;47.910;20.390;2022-08-19T01:42:43;8.38;;;5.75;;
62844;SDS011;48929;47.910;20.390;2022-08-19T01:45:11;8.13;;;5.80;;
62844;SDS011;48929;47.910;20.390;2022-08-19T01:47:39;7.88;;;6.32;;
62844;SDS011;48929;47.910;20.390;2022-08-19T01:50:08;8.95;;;6.43;;
62844;SDS011;48929;47.910;20.390;2022-08-19T01:52:37;10.20;;;6.40;;
62844;SDS011;48929;47.910;20.390;2022-08-19T01:55:08;9.20;;;6.35;;
62844;SDS011;48929;47.910;20.390;2022-08-19T01:57:36;8.20;;;6.20;;
62844;SDS011;48929;47.910;20.390;2022-08-19T02:00:06;9.55;;;6.22;;
62844;SDS011;48929;47.910;20.390;2022-08-19T02:02:35;8.30;;;6.25;;
62844;SDS011;48929;47.910;20.390;2022-08-19T02:05:03;8.73;;;6.07;;
62844;SDS011;48929;47.910;20.390;2022-08-19T02:07:36;9.45;;;6.30;;
62844;SDS011;48929;47.910;20.390;2022-08-19T02:10:09;8.05;;;6.22;;
62844;SDS011;48929;47.910;20.390;2022-08-19T02:12:42;8.82;;;6.43;;
62844;SDS011;48929;47.910;20.390;2022-08-19T02:15:10;7.80;;;6.22;;
62844;SDS011;48929;47.910;20.390;2022-08-19T02:17:38;7.80;;;6.57;;
62844;SDS011;48929;47.910;20.390;2022-08-19T02:20:07;7.45;;;5.88;;
62844;SDS011;48929;47.910;20.390;2022-08-19T02:22:35;8.88;;;6.22;;
62844;SDS011;48929;47.910;20.390;2022-08-19T02:25:04;9.48;;;6.72;;
62844;SDS011;48929;47.910;20.390;2022-08-19T02:27:34;10.05;;;6.50;;
62844;SDS011;48929;47.910;20.390;2022-08-19T02:30:02;8.18;;;6.75;;
62844;SDS011;48929;47.910;20.390;2022-08-19T02:32:31;9.15;;;6.45;;
62844;SDS011;48929;47.910;20.390;2022-08-19T02:35:09;8.80;;;6.53;;
62844;SDS011;48929;47.910;20.390;2022-08-19T02:37:38;8.68;;;6.50;;
62844;SDS011;48929;47.910;20.390;2022-08-19T02:40:24;9.15;;;6.18;;
62844;SDS011;48929;47.910;20.390;2022-08-19T02:42:53;9.57;;;6.10;;
62844;SDS011;48929;47.910;20.390;2022-08-19T02:45:21;9.35;;;6.07;;
62844;SDS011;48929;47.910;20.390;2022-08-19T02:47:50;9.00;;;6.50;;
62844;SDS011;48929;47.910;20.390;2022-08-19T02:50:18;8.45;;;6.07;;
62844;SDS011;48929;47.910;20.390;2022-08-19T02:52:46;8.80;;;6.32;;
62844;SDS011;48929;47.910;20.390;2022-08-19T02:55:14;10.48;;;6.10;;
62844;SDS011;48929;47.910;20.390;2022-08-19T02:57:42;7.65;;;6.13;;
62844;SDS011;48929;47.910;20.390;2022-08-19T03:00:12;8.57;;;6.20;;
62844;SDS011;48929;47.910;20.390;2022-08-19T03:02:40;9.95;;;6.63;;
62844;SDS011;48929;47.910;20.390;2022-08-19T03:05:09;9.57;;;6.30;;
62844;SDS011;48929;47.910;20.390;2022-08-19T03:07:37;8.20;;;6.10;;
62844;SDS011;48929;47.910;20.390;2022-08-19T03:10:06;10.30;;;6.43;;
62844;SDS011;48929;47.910;20.390;2022-08-19T03:12:35;10.32;;;6.43;;
62844;SDS011;48929;47.910;20.390;2022-08-19T03:15:03;8.02;;;6.05;;
62844;SDS011;48929;47.910;20.390;2022-08-19T03:17:34;8.68;;;6.28;;
62844;SDS011;48929;47.910;20.390;2022-08-19T03:20:03;8.98;;;6.03;;
62844;SDS011;48929;47.910;20.390;2022-08-19T03:22:31;9.43;;;6.20;;
62844;SDS011;48929;47.910;20.390;2022-08-19T03:24:59;12.32;;;6.40;;
62844;SDS011;48929;47.910;20.390;2022-08-19T03:27:27;8.35;;;6.35;;
62844;SDS011;48929;47.910;20.390;2022-08-19T03:30:00;10.43;;;6.72;;
62844;SDS011;48929;47.910;20.390;2022-08-19T03:32:29;9.30;;;6.45;;
62844;SDS011;48929;47.910;20.390;2022-08-19T03:35:00;8.98;;;6.28;;
62844;SDS011;48929;47.910;20.390;2022-08-19T03:37:30;10.35;;;6.72;;
62844;SDS011;48929;47.910;20.390;2022-08-19T03:39:59;9.15;;;6.18;;
62844;SDS011;48929;47.910;20.390;2022-08-19T03:42:29;10.02;;;6.35;;
62844;SDS011;48929;47.910;20.390;2022-08-19T03:47:42;8.70;;;6.68;;
62844;SDS011;48929;47.910;20.390;2022-08-19T03:50:13;9.82;;;6.55;;
62844;SDS011;48929;47.910;20.390;2022-08-19T03:52:41;10.30;;;6.45;;
62844;SDS011;48929;47.910;20.390;2022-08-19T03:55:12;12.23;;;6.93;;
62844;SDS011;48929;47.910;20.390;2022-08-19T03:57:40;9.93;;;6.28;;
62844;SDS011;48929;47.910;20.390;2022-08-19T04:00:09;9.23;;;5.93;;
62844;SDS011;48929;47.910;20.390;2022-08-19T04:02:39;10.23;;;5.72;;
62844;SDS011;48929;47.910;20.390;2022-08-19T04:05:25;9.52;;;6.07;;
62844;SDS011;48929;47.910;20.390;2022-08-19T04:07:54;8.50;;;6.15;;
62844;SDS011;48929;47.910;20.390;2022-08-19T04:10:23;11.02;;;6.43;;
62844;SDS011;48929;47.910;20.390;2022-08-19T04:12:52;9.90;;;6.13;;
62844;SDS011;48929;47.910;20.390;2022-08-19T04:15:20;9.52;;;6.10;;
62844;SDS011;48929;47.910;20.390;2022-08-19T04:17:48;9.60;;;6.10;;
62844;SDS011;48929;47.910;20.390;2022-08-19T04:20:16;9.27;;;6.72;;
62844;SDS011;48929;47.910;20.390;2022-08-19T04:22:45;8.05;;;6.50;;
62844;SDS011;48929;47.910;20.390;2022-08-19T04:25:13;8.27;;;6.10;;
62844;SDS011;48929;47.910;20.390;2022-08-19T04:27:42;9.07;;;6.15;;
62844;SDS011;48929;47.910;20.390;2022-08-19T04:30:13;12.68;;;6.90;;
62844;SDS011;48929;47.910;20.390;2022-08-19T04:32:41;9.45;;;6.85;;
62844;SDS011;48929;47.910;20.390;2022-08-19T04:35:10;12.70;;;7.13;;
62844;SDS011;48929;47.910;20.390;2022-08-19T04:37:47;9.38;;;6.70;;
62844;SDS011;48929;47.910;20.390;2022-08-19T04:40:15;10.27;;;6.50;;
62844;SDS011;48929;47.910;20.390;2022-08-19T04:43:04;10.30;;;6.53;;
62844;SDS011;48929;47.910;20.390;2022-08-19T04:45:36;9.30;;;6.18;;
62844;SDS011;48929;47.910;20.390;2022-08-19T04:48:18;10.15;;;6.00;;
62844;SDS011;48929;47.910;20.390;2022-08-19T04:50:53;9.75;;;6.15;;
62844;SDS011;48929;47.910;20.390;2022-08-19T04:53:26;8.75;;;6.00;;
62844;SDS011;48929;47.910;20.390;2022-08-19T04:56:04;9.45;;;5.82;;
62844;SDS011;48929;47.910;20.390;2022-08-19T04:58:33;9.88;;;5.90;;
62844;SDS011;48929;47.910;20.390;2022-08-19T05:01:02;9.07;;;6.20;;
62844;SDS011;48929;47.910;20.390;2022-08-19T05:03:30;7.68;;;5.68;;
62844;SDS011;48929;47.910;20.390;2022-08-19T05:06:03;7.88;;;5.55;;
62844;SDS011;48929;47.910;20.390;2022-08-19T05:08:35;8.75;;;6.20;;
62844;SDS011;48929;47.910;20.390;2022-08-19T05:11:07;8.73;;;5.93;;
62844;SDS011;48929;47.910;20.390;2022-08-19T05:13:39;9.18;;;5.75;;
62844;SDS011;48929;47.910;20.390;2022-08-19T05:16:09;9.80;;;6.20;;
62844;SDS011;48929;47.910;20.390;2022-08-19T05:18:38;9.70;;;6.20;;
62844;SDS011;48929;47.910;20.390;2022-08-19T05:21:24;9.20;;;6.38;;
62844;SDS011;48929;47.910;20.390;2022-08-19T05:24:12;8.75;;;6.18;;
62844;SDS011;48929;47.910;20.390;2022-08-19T05:26:43;8.93;;;6.15;;
62844;SDS011;48929;47.910;20.390;2022-08-19T05:29:13;7.40;;;5.63;;
62844;SDS011;48929;47.910;20.390;2022-08-19T05:31:41;10.55;;;6.03;;
62844;SDS011;48929;47.910;20.390;2022-08-19T05:34:09;10.50;;;6.05;;
62844;SDS011;48929;47.910;20.390;2022-08-19T05:39:16;11.30;;;5.82;;
62844;SDS011;48929;47.910;20.390;2022-08-19T05:41:45;9.30;;;6.00;;
62844;SDS011;48929;47.910;20.390;2022-08-19T05:44:14;9.23;;;6.10;;
62844;SDS011;48929;47.910;20.390;2022-08-19T05:46:45;9.38;;;5.75;;
62844;SDS011;48929;47.910;20.390;2022-08-19T05:49:23;8.15;;;5.75;;
62844;SDS011;48929;47.910;20.390;2022-08-19T05:51:53;7.65;;;5.45;;
62844;SDS011;48929;47.910;20.390;2022-08-19T05:54:36;6.95;;;5.18;;
62844;SDS011;48929;47.910;20.390;2022-08-19T05:57:20;8.27;;;5.10;;
62844;SDS011;48929;47.910;20.390;2022-08-19T05:59:50;6.00;;;4.90;;
62844;SDS011;48929;47.910;20.390;2022-08-19T06:03:43;6.50;;;4.80;;
62844;SDS011;48929;47.910;20.390;2022-08-19T06:06:15;7.20;;;5.30;;
62844;SDS011;48929;47.910;20.390;2022-08-19T06:08:51;6.90;;;5.00;;
62844;SDS011;48929;47.910;20.390;2022-08-19T06:11:22;5.70;;;4.72;;
62844;SDS011;48929;47.910;20.390;2022-08-19T06:13:51;8.52;;;5.32;;
62844;SDS011;48929;47.910;20.390;2022-08-19T06:16:26;6.93;;;4.55;;
62844;SDS011;48929;47.910;20.390;2022-08-19T06:18:55;10.50;;;5.13;;
62844;SDS011;48929;47.910;20.390;2022-08-19T06:21:25;7.95;;;5.07;;
62844;SDS011;48929;47.910;20.390;2022-08-19T06:23:57;6.35;;;4.80;;
62844;SDS011;48929;47.910;20.390;2022-08-19T06:26:28;6.18;;;4.30;;
62844;SDS011;48929;47.910;20.390;2022-08-19T06:28:57;8.30;;;4.90;;
62844;SDS011;48929;47.910;20.390;2022-08-19T06:31:27;7.13;;;5.20;;
62844;SDS011;48929;47.910;20.390;2022-08-19T06:33:55;5.97;;;4.80;;
62844;SDS011;48929;47.910;20.390;2022-08-19T06:36:25;8.02;;;4.85;;
62844;SDS011;48929;47.910;20.390;2022-08-19T06:38:58;6.70;;;4.68;;
62844;SDS011;48929;47.910;20.390;2022-08-19T06:41:28;6.13;;;4.80;;
62844;SDS011;48929;47.910;20.390;2022-08-19T06:43:56;6.40;;;4.72;;
62844;SDS011;48929;47.910;20.390;2022-08-19T06:46:25;6.03;;;4.80;;
62844;SDS011;48929;47.910;20.390;2022-08-19T06:48:54;8.77;;;5.22;;
62844;SDS011;48929;47.910;20.390;2022-08-19T06:51:23;7.03;;;4.90;;
62844;SDS011;48929;47.910;20.390;2022-08-19T06:53:55;6.18;;;4.97;;
62844;SDS011;48929;47.910;20.390;2022-08-19T06:56:25;9.38;;;5.40;;
62844;SDS011;48929;47.910;20.390;2022-08-19T06:58:59;6.35;;;5.03;;
62844;SDS011;48929;47.910;20.390;2022-08-19T07:01:27;7.05;;;4.53;;
62844;SDS011;48929;47.910;20.390;2022-08-19T07:03:55;6.25;;;4.82;;
62844;SDS011;48929;47.910;20.390;2022-08-19T07:06:24;5.88;;;4.85;;
62844;SDS011;48929;47.910;20.390;2022-08-19T07:09:11;6.20;;;4.93;;
62844;SDS011;48929;47.910;20.390;2022-08-19T07:11:47;6.57;;;5.10;;
62844;SDS011;48929;47.910;20.390;2022-08-19T07:14:18;6.22;;;4.70;;
62844;SDS011;48929;47.910;20.390;2022-08-19T07:16:47;7.28;;;5.28;;
62844;SDS011;48929;47.910;20.390;2022-08-19T07:19:18;7.03;;;5.28;;
62844;SDS011;48929;47.910;20.390;2022-08-19T07:21:47;7.20;;;5.10;;
62844;SDS011;48929;47.910;20.390;2022-08-19T07:24:16;6.72;;;4.95;;
62844;SDS011;48929;47.910;20.390;2022-08-19T07:26:44;5.93;;;4.90;;
62844;SDS011;48929;47.910;20.390;2022-08-19T07:29:19;6.95;;;5.30;;
62844;SDS011;48929;47.910;20.390;2022-08-19T07:31:51;6.88;;;5.35;;
62844;SDS011;48929;47.910;20.390;2022-08-19T07:34:23;6.75;;;5.28;;
62844;SDS011;48929;47.910;20.390;2022-08-19T07:36:51;6.90;;;4.72;;
62844;SDS011;48929;47.910;20.390;2022-08-19T07:39:21;7.53;;;4.93;;
62844;SDS011;48929;47.910;20.390;2022-08-19T07:41:49;6.22;;;4.80;;
62844;SDS011;48929;47.910;20.390;2022-08-19T07:44:19;6.88;;;4.78;;
62844;SDS011;48929;47.910;20.390;2022-08-19T07:46:49;8.38;;;4.90;;
62844;SDS011;48929;47.910;20.390;2022-08-19T07:49:20;6.63;;;5.40;;
62844;SDS011;48929;47.910;20.390;2022-08-19T07:51:50;5.90;;;5.00;;
62844;SDS011;48929;47.910;20.390;2022-08-19T07:54:19;6.85;;;4.90;;
62844;SDS011;48929;47.910;20.390;2022-08-19T07:56:47;6.28;;;4.97;;
62844;SDS011;48929;47.910;20.390;2022-08-19T07:59:19;8.60;;;4.85;;
62844;SDS011;48929;47.910;20.390;2022-08-19T08:01:48;6.40;;;5.00;;
62844;SDS011;48929;47.910;20.390;2022-08-19T08:04:16;7.85;;;5.03;;
62844;SDS011;48929;47.910;20.390;2022-08-19T08:07:02;7.00;;;4.57;;
62844;SDS011;48929;47.910;20.390;2022-08-19T08:09:49;6.05;;;4.80;;
62844;SDS011;48929;47.910;20.390;2022-08-19T08:12:18;5.43;;;4.70;;
62844;SDS011;48929;47.910;20.390;2022-08-19T08:15:05;7.07;;;5.03;;
62844;SDS011;48929;47.910;20.390;2022-08-19T08:17:38;6.78;;;4.90;;
62844;SDS011;48929;47.910;20.390;2022-08-19T08:20:17;5.32;;;4.57;;
62844;SDS011;48929;47.910;20.390;2022-08-19T08:22:45;9.55;;;4.93;;
62844;SDS011;48929;47.910;20.390;2022-08-19T08:25:32;6.55;;;4.80;;
62844;SDS011;48929;47.910;20.390;2022-08-19T08:28:01;6.00;;;4.75;;
62844;SDS011;48929;47.910;20.390;2022-08-19T08:30:30;6.75;;;4.65;;
62844;SDS011;48929;47.910;20.390;2022-08-19T08:33:04;5.95;;;4.72;;
62844;SDS011;48929;47.910;20.390;2022-08-19T08:35:32;5.97;;;4.85;;
62844;SDS011;48929;47.910;20.390;2022-08-19T08:38:01;5.50;;;4.53;;
62844;SDS011;48929;47.910;20.390;2022-08-19T08:40:32;6.40;;;4.70;;
62844;SDS011;48929;47.910;20.390;2022-08-19T08:43:03;7.35;;;4.80;;
62844;SDS011;48929;47.910;20.390;2022-08-19T08:45:41;6.53;;;4.80;;
62844;SDS011;48929;47.910;20.390;2022-08-19T08:48:20;5.22;;;4.43;;
62844;SDS011;48929;47.910;20.390;2022-08-19T08:50:49;6.47;;;4.65;;
62844;SDS011;48929;47.910;20.390;2022-08-19T08:53:19;5.97;;;4.53;;
62844;SDS011;48929;47.910;20.390;2022-08-19T08:55:57;6.63;;;4.43;;
62844;SDS011;48929;47.910;20.390;2022-08-19T08:58:29;6.30;;;4.80;;
62844;SDS011;48929;47.910;20.390;2022-08-19T09:01:00;5.28;;;4.57;;
62844;SDS011;48929;47.910;20.390;2022-08-19T09:03:28;5.43;;;4.82;;
62844;SDS011;48929;47.910;20.390;2022-08-19T09:05:59;6.38;;;4.32;;
62844;SDS011;48929;47.910;20.390;2022-08-19T09:08:39;6.55;;;4.90;;
62844;SDS011;48929;47.910;20.390;2022-08-19T09:11:10;5.85;;;4.60;;
62844;SDS011;48929;47.910;20.390;2022-08-19T09:14:05;6.25;;;4.90;;
62844;SDS011;48929;47.910;20.390;2022-08-19T09:16:58;5.63;;;4.57;;
62844;SDS011;48929;47.910;20.390;2022-08-19T09:19:27;5.20;;;4.30;;
62844;SDS011;48929;47.910;20.390;2022-08-19T09:21:55;5.28;;;4.68;;
62844;SDS011;48929;47.910;20.390;2022-08-19T09:24:23;8.57;;;4.82;;
62844;SDS011;48929;47.910;20.390;2022-08-19T09:26:57;6.15;;;4.50;;
62844;SDS011;48929;47.910;20.390;2022-08-19T09:29:29;6.13;;;4.75;;
62844;SDS011;48929;47.910;20.390;2022-08-19T09:31:58;5.85;;;4.60;;
62844;SDS011;48929;47.910;20.390;2022-08-19T09:34:27;6.05;;;4.78;;
62844;SDS011;48929;47.910;20.390;2022-08-19T09:37:03;7.22;;;4.93;;
62844;SDS011;48929;47.910;20.390;2022-08-19T09:39:32;6.07;;;5.00;;
62844;SDS011;48929;47.910;20.390;2022-08-19T09:42:01;6.68;;;4.97;;
62844;SDS011;48929;47.910;20.390;2022-08-19T09:44:42;6.70;;;4.82;;
62844;SDS011;48929;47.910;20.390;2022-08-19T09:47:12;7.43;;;5.15;;
62844;SDS011;48929;47.910;20.390;2022-08-19T09:49:40;7.10;;;5.40;;
62844;SDS011;48929;47.910;20.390;2022-08-19T09:52:09;6.45;;;5.40;;
62844;SDS011;48929;47.910;20.390;2022-08-19T09:54:39;7.70;;;5.45;;
62844;SDS011;48929;47.910;20.390;2022-08-19T09:57:09;6.55;;;5.15;;
62844;SDS011;48929;47.910;20.390;2022-08-19T09:59:38;6.05;;;5.00;;
62844;SDS011;48929;47.910;20.390;2022-08-19T10:02:06;6.68;;;5.22;;
62844;SDS011;48929;47.910;20.390;2022-08-19T10:04:38;7.18;;;5.38;;
62844;SDS011;48929;47.910;20.390;2022-08-19T10:07:23;7.55;;;5.50;;
62844;SDS011;48929;47.910;20.390;2022-08-19T10:10:02;6.53;;;5.47;;
62844;SDS011;48929;47.910;20.390;2022-08-19T10:12:30;7.30;;;5.50;;
62844;SDS011;48929;47.910;20.390;2022-08-19T10:15:02;8.38;;;5.57;;
62844;SDS011;48929;47.910;20.390;2022-08-19T10:17:32;8.88;;;5.30;;
62844;SDS011;48929;47.910;20.390;2022-08-19T10:20:05;8.15;;;5.22;;
62844;SDS011;48929;47.910;20.390;2022-08-19T10:22:35;5.80;;;5.20;;
62844;SDS011;48929;47.910;20.390;2022-08-19T10:25:05;5.57;;;4.97;;
62844;SDS011;48929;47.910;20.390;2022-08-19T10:27:35;7.15;;;5.38;;
62844;SDS011;48929;47.910;20.390;2022-08-19T10:30:06;7.32;;;4.95;;
62844;SDS011;48929;47.910;20.390;2022-08-19T10:32:38;6.03;;;5.00;;
62844;SDS011;48929;47.910;20.390;2022-08-19T10:35:14;8.00;;;5.28;;
62844;SDS011;48929;47.910;20.390;2022-08-19T10:37:49;5.93;;;5.20;;
62844;SDS011;48929;47.910;20.390;2022-08-19T10:40:27;7.25;;;5.47;;
62844;SDS011;48929;47.910;20.390;2022-08-19T10:42:55;9.27;;;5.40;;
62844;SDS011;48929;47.910;20.390;2022-08-19T10:45:24;6.53;;;4.90;;
62844;SDS011;48929;47.910;20.390;2022-08-19T10:48:00;6.13;;;5.25;;
62844;SDS011;48929;47.910;20.390;2022-08-19T10:50:29;9.02;;;5.57;;
62844;SDS011;48929;47.910;20.390;2022-08-19T10:53:15;6.10;;;5.15;;
62844;SDS011;48929;47.910;20.390;2022-08-19T10:55:44;6.53;;;5.47;;
62844;SDS011;48929;47.910;20.390;2022-08-19T10:58:32;6.45;;;5.00;;
62844;SDS011;48929;47.910;20.390;2022-08-19T11:01:04;6.45;;;5.20;;
62844;SDS011;48929;47.910;20.390;2022-08-19T11:03:35;7.20;;;4.95;;
62844;SDS011;48929;47.910;20.390;2022-08-19T11:06:06;7.75;;;5.50;;
62844;SDS011;48929;47.910;20.390;2022-08-19T11:08:36;7.60;;;5.55;;
62844;SDS011;48929;47.910;20.390;2022-08-19T11:11:06;7.30;;;5.18;;
62844;SDS011;48929;47.910;20.390;2022-08-19T11:13:37;7.88;;;5.65;;
62844;SDS011;48929;47.910;20.390;2022-08-19T11:16:07;8.85;;;5.40;;
62844;SDS011;48929;47.910;20.390;2022-08-19T11:18:39;6.60;;;5.32;;
62844;SDS011;48929;47.910;20.390;2022-08-19T11:21:10;6.65;;;5.80;;
62844;SDS011;48929;47.910;20.390;2022-08-19T11:23:38;6.50;;;5.03;;
62844;SDS011;48929;47.910;20.390;2022-08-19T11:26:07;6.80;;;5.15;;
62844;SDS011;48929;47.910;20.390;2022-08-19T11:28:35;7.75;;;5.32;;
62844;SDS011;48929;47.910;20.390;2022-08-19T11:31:03;6.13;;;5.50;;
62844;SDS011;48929;47.910;20.390;2022-08-19T11:33:34;6.97;;;5.40;;
62844;SDS011;48929;47.910;20.390;2022-08-19T11:36:03;9.82;;;5.53;;
62844;SDS011;48929;47.910;20.390;2022-08-19T11:38:33;6.97;;;5.20;;
62844;SDS011;48929;47.910;20.390;2022-08-19T11:41:02;6.47;;;5.43;;
62844;SDS011;48929;47.910;20.390;2022-08-19T11:43:31;7.68;;;5.28;;
62844;SDS011;48929;47.910;20.390;2022-08-19T11:46:03;7.10;;;5.63;;
62844;SDS011;48929;47.910;20.390;2022-08-19T11:48:33;7.20;;;5.30;;
62844;SDS011;48929;47.910;20.390;2022-08-19T11:51:03;7.38;;;5.38;;
62844;SDS011;48929;47.910;20.390;2022-08-19T11:53:34;7.70;;;5.82;;
62844;SDS011;48929;47.910;20.390;2022-08-19T11:56:02;7.13;;;5.50;;
62844;SDS011;48929;47.910;20.390;2022-08-19T11:58:31;6.90;;;5.53;;
62844;SDS011;48929;47.910;20.390;2022-08-19T12:00:59;6.50;;;5.72;;
62844;SDS011;48929;47.910;20.390;2022-08-19T12:03:28;8.15;;;5.72;;
62844;SDS011;48929;47.910;20.390;2022-08-19T12:05:56;6.95;;;6.00;;
62844;SDS011;48929;47.910;20.390;2022-08-19T12:08:24;8.65;;;5.60;;
62844;SDS011;48929;47.910;20.390;2022-08-19T12:10:54;7.80;;;5.90;;
62844;SDS011;48929;47.910;20.390;2022-08-19T12:13:22;7.05;;;5.57;;
62844;SDS011;48929;47.910;20.390;2022-08-19T12:15:50;7.72;;;5.43;;
62844;SDS011;48929;47.910;20.390;2022-08-19T12:18:22;7.43;;;5.65;;
62844;SDS011;48929;47.910;20.390;2022-08-19T12:20:52;6.63;;;5.93;;
62844;SDS011;48929;47.910;20.390;2022-08-19T12:23:23;7.03;;;6.05;;
62844;SDS011;48929;47.910;20.390;2022-08-19T12:25:55;7.35;;;5.72;;
62844;SDS011;48929;47.910;20.390;2022-08-19T12:28:26;8.60;;;5.68;;
62844;SDS011;48929;47.910;20.390;2022-08-19T12:30:55;7.72;;;5.93;;
62844;SDS011;48929;47.910;20.390;2022-08-19T12:33:24;7.28;;;6.28;;
62844;SDS011;48929;47.910;20.390;2022-08-19T12:35:53;7.00;;;5.95;;
62844;SDS011;48929;47.910;20.390;2022-08-19T12:38:21;7.72;;;5.93;;
62844;SDS011;48929;47.910;20.390;2022-08-19T12:40:50;6.65;;;5.70;;
62844;SDS011;48929;47.910;20.390;2022-08-19T12:43:27;8.82;;;6.18;;
62844;SDS011;48929;47.910;20.390;2022-08-19T12:45:55;7.00;;;6.00;;
62844;SDS011;48929;47.910;20.390;2022-08-19T12:48:26;7.10;;;5.88;;
62844;SDS011;48929;47.910;20.390;2022-08-19T12:51:00;6.20;;;5.57;;
62844;SDS011;48929;47.910;20.390;2022-08-19T12:53:29;7.35;;;5.70;;
62844;SDS011;48929;47.910;20.390;2022-08-19T12:55:57;6.90;;;6.05;;
62844;SDS011;48929;47.910;20.390;2022-08-19T12:58:28;7.03;;;6.15;;
62844;SDS011;48929;47.910;20.390;2022-08-19T13:00:56;7.00;;;6.30;;
62844;SDS011;48929;47.910;20.390;2022-08-19T13:03:25;7.70;;;6.35;;
62844;SDS011;48929;47.910;20.390;2022-08-19T13:05:55;8.38;;;5.78;;
62844;SDS011;48929;47.910;20.390;2022-08-19T13:08:24;8.15;;;6.18;;
62844;SDS011;48929;47.910;20.390;2022-08-19T13:10:52;8.55;;;5.70;;
62844;SDS011;48929;47.910;20.390;2022-08-19T13:13:20;7.30;;;6.00;;
62844;SDS011;48929;47.910;20.390;2022-08-19T13:15:50;8.38;;;6.75;;
62844;SDS011;48929;47.910;20.390;2022-08-19T13:18:18;11.13;;;6.32;;
62844;SDS011;48929;47.910;20.390;2022-08-19T13:20:47;6.35;;;5.72;;
62844;SDS011;48929;47.910;20.390;2022-08-19T13:23:18;8.32;;;6.35;;
62844;SDS011;48929;47.910;20.390;2022-08-19T13:25:54;11.80;;;6.47;;
62844;SDS011;48929;47.910;20.390;2022-08-19T13:28:23;7.68;;;6.10;;
62844;SDS011;48929;47.910;20.390;2022-08-19T13:31:20;7.50;;;6.38;;
62844;SDS011;48929;47.910;20.390;2022-08-19T13:34:09;6.93;;;6.22;;
62844;SDS011;48929;47.910;20.390;2022-08-19T13:36:45;8.57;;;6.30;;
62844;SDS011;48929;47.910;20.390;2022-08-19T13:39:23;8.20;;;6.22;;
62844;SDS011;48929;47.910;20.390;2022-08-19T13:41:51;8.15;;;6.32;;
62844;SDS011;48929;47.910;20.390;2022-08-19T13:44:20;7.55;;;6.18;;
62844;SDS011;48929;47.910;20.390;2022-08-19T13:46:50;9.32;;;6.28;;
62844;SDS011;48929;47.910;20.390;2022-08-19T13:49:20;7.60;;;6.40;;
62844;SDS011;48929;47.910;20.390;2022-08-19T13:51:50;8.15;;;6.20;;
62844;SDS011;48929;47.910;20.390;2022-08-19T13:54:18;8.07;;;6.22;;
62844;SDS011;48929;47.910;20.390;2022-08-19T13:56:46;8.65;;;6.38;;
62844;SDS011;48929;47.910;20.390;2022-08-19T13:59:14;7.50;;;5.85;;
62844;SDS011;48929;47.910;20.390;2022-08-19T14:01:43;8.45;;;6.43;;
62844;SDS011;48929;47.910;20.390;2022-08-19T14:04:14;6.88;;;6.10;;
62844;SDS011;48929;47.910;20.390;2022-08-19T14:06:42;7.88;;;6.35;;
62844;SDS011;48929;47.910;20.390;2022-08-19T14:09:11;8.52;;;6.63;;
62844;SDS011;48929;47.910;20.390;2022-08-19T14:11:39;7.05;;;5.90;;
62844;SDS011;48929;47.910;20.390;2022-08-19T14:14:07;6.90;;;6.20;;
62844;SDS011;48929;47.910;20.390;2022-08-19T14:16:41;7.00;;;6.30;;
62844;SDS011;48929;47.910;20.390;2022-08-19T14:19:10;8.68;;;5.82;;
62844;SDS011;48929;47.910;20.390;2022-08-19T14:21:39;7.68;;;5.85;;
62844;SDS011;48929;47.910;20.390;2022-08-19T14:24:08;8.68;;;6.18;;
62844;SDS011;48929;47.910;20.390;2022-08-19T14:26:36;7.45;;;6.00;;
62844;SDS011;48929;47.910;20.390;2022-08-19T14:29:05;8.65;;;6.22;;
62844;SDS011;48929;47.910;20.390;2022-08-19T14:31:33;8.45;;;5.68;;
62844;SDS011;48929;47.910;20.390;2022-08-19T14:34:02;7.75;;;5.95;;
62844;SDS011;48929;47.910;20.390;2022-08-19T14:36:30;6.20;;;5.60;;
62844;SDS011;48929;47.910;20.390;2022-08-19T14:39:06;7.53;;;5.60;;
62844;SDS011;48929;47.910;20.390;2022-08-19T14:41:34;7.75;;;5.70;;
62844;SDS011;48929;47.910;20.390;2022-08-19T14:44:02;8.90;;;5.80;;
62844;SDS011;48929;47.910;20.390;2022-08-19T14:46:30;7.57;;;6.10;;
62844;SDS011;48929;47.910;20.390;2022-08-19T14:48:59;8.00;;;5.70;;
62844;SDS011;48929;47.910;20.390;2022-08-19T14:51:35;6.78;;;5.68;;
62844;SDS011;48929;47.910;20.390;2022-08-19T14:54:03;7.35;;;5.60;;
62844;SDS011;48929;47.910;20.390;2022-08-19T14:56:32;6.70;;;5.57;;
62844;SDS011;48929;47.910;20.390;2022-08-19T14:59:00;7.00;;;6.00;;
62844;SDS011;48929;47.910;20.390;2022-08-19T15:01:29;6.40;;;5.68;;
62844;SDS011;48929;47.910;20.390;2022-08-19T15:03:57;8.43;;;5.80;;